Piermont, New Hampshire
Current Conditions -  °F | °C
As of 7:55 AM on Monday 24 Nov 2014 (Local Time) from K1P1 Reporting Station
Unknown Precip Unknown Precip  
Wind Chill: 38°   Ceiling: 600
Heat Index: 38°   Visibility: 0.75mi
Dew Point: 38°   Wind: 0mph
Humidity: 100%   Direction: NA
Pressure: 29.79"   Gusts: NA
Location:  43.97°N, 72.08°W
Report Text: K1P1 241255Z AUTO 00000KT 3/4SM UP OVC006 04/04 A2979 RMK AO2 P0019 T00350035
Loading
Personal Weather Stations






























Interactive Weather Map New forecast layout! Learn more

10-Day Weather Forecast

Advertisements
Track Severe Weather on mobile